createdAt,value
2022-12-20T00:02:04.911Z,2.50
2022-12-20T00:04:31.167Z,2.38
2022-12-20T00:06:57.393Z,2.53
2022-12-20T00:09:25.237Z,2.53
2022-12-20T00:11:51.467Z,2.30
2022-12-20T00:14:17.884Z,2.10
2022-12-20T00:16:44.178Z,2.42
2022-12-20T00:19:10.749Z,2.50
2022-12-20T00:21:38.056Z,2.38
2022-12-20T00:24:05.076Z,2.55
2022-12-20T00:26:32.619Z,2.80
2022-12-20T00:28:59.839Z,2.78
2022-12-20T00:31:27.079Z,2.88
2022-12-20T00:33:54.381Z,2.50
2022-12-20T00:36:21.673Z,2.60
2022-12-20T00:38:48.520Z,2.58
2022-12-20T00:41:15.949Z,2.83
2022-12-20T00:43:42.245Z,2.63
2022-12-20T00:46:09.735Z,3.00
2022-12-20T00:48:36.319Z,3.28
2022-12-20T00:51:04.388Z,3.30
2022-12-20T00:53:30.625Z,2.72
2022-12-20T00:55:57.197Z,3.10
2022-12-20T00:58:23.810Z,3.40
2022-12-20T01:00:55.840Z,3.30
2022-12-20T01:03:23.092Z,3.00
2022-12-20T01:05:50.431Z,3.30
2022-12-20T01:08:16.685Z,3.38
2022-12-20T01:10:43.074Z,3.17
2022-12-20T01:13:09.277Z,3.28
2022-12-20T01:15:35.473Z,3.85
2022-12-20T01:18:01.820Z,3.55
2022-12-20T01:20:28.198Z,3.70
2022-12-20T01:22:54.432Z,3.30
2022-12-20T01:25:20.646Z,3.15
2022-12-20T01:27:46.858Z,3.20
2022-12-20T01:30:13.205Z,3.55
2022-12-20T01:32:39.408Z,3.53
2022-12-20T01:35:05.795Z,3.58
2022-12-20T01:37:32.442Z,3.88
2022-12-20T01:39:58.639Z,3.90
2022-12-20T01:42:24.837Z,3.65
2022-12-20T01:44:53.054Z,3.55
2022-12-20T01:47:19.417Z,3.33
2022-12-20T01:49:47.576Z,3.70
2022-12-20T01:52:19.340Z,3.90
2022-12-20T01:54:51.460Z,3.30
2022-12-20T01:57:20.020Z,3.30
2022-12-20T01:59:47.282Z,3.58
2022-12-20T02:02:13.999Z,3.85
2022-12-20T02:04:40.442Z,3.85
2022-12-20T02:07:07.893Z,3.70
2022-12-20T02:09:35.909Z,3.50
2022-12-20T02:12:05.014Z,4.40
2022-12-20T02:14:49.198Z,4.30
2022-12-20T02:17:15.535Z,3.90
2022-12-20T02:19:47.576Z,4.20
2022-12-20T02:22:37.251Z,4.00
2022-12-20T02:25:10.747Z,3.65
2022-12-20T02:27:47.261Z,4.20
2022-12-20T02:30:14.372Z,4.15
2022-12-20T02:32:44.742Z,4.20
2022-12-20T02:35:13.178Z,4.15
2022-12-20T02:37:53.714Z,3.97
2022-12-20T02:40:22.418Z,4.40
2022-12-20T02:42:51.138Z,4.25
2022-12-20T02:45:20.660Z,3.83
2022-12-20T02:47:55.700Z,3.42
2022-12-20T02:50:25.433Z,3.30
2022-12-20T02:52:52.005Z,3.67
2022-12-20T02:55:18.323Z,3.83
2022-12-20T02:58:00.845Z,3.60
2022-12-20T03:00:29.653Z,4.03
2022-12-20T03:03:14.609Z,3.30
2022-12-20T03:05:45.243Z,3.40
2022-12-20T03:08:11.496Z,3.20
2022-12-20T03:10:37.881Z,3.58
2022-12-20T03:13:04.476Z,3.90
2022-12-20T03:15:30.681Z,4.00
2022-12-20T03:17:56.905Z,3.90
2022-12-20T03:20:23.120Z,3.42
2022-12-20T03:22:49.353Z,3.95
2022-12-20T03:25:15.603Z,4.45
2022-12-20T03:27:41.895Z,4.03
2022-12-20T03:30:08.702Z,3.97
2022-12-20T03:32:34.992Z,4.32
2022-12-20T03:35:01.543Z,4.30
2022-12-20T03:37:27.805Z,3.88
2022-12-20T03:39:54.006Z,4.15
2022-12-20T03:42:20.187Z,4.22
2022-12-20T03:44:46.532Z,4.20
2022-12-20T03:47:12.775Z,3.80
2022-12-20T03:49:38.978Z,4.00
2022-12-20T03:52:05.280Z,3.88
2022-12-20T03:54:31.711Z,4.10
2022-12-20T03:56:57.897Z,3.70
2022-12-20T03:59:24.379Z,3.80
2022-12-20T04:01:50.654Z,4.05
2022-12-20T04:04:17.051Z,4.07
2022-12-20T04:06:43.275Z,3.85
2022-12-20T04:09:09.484Z,4.07
2022-12-20T04:11:35.692Z,4.05
2022-12-20T04:14:01.922Z,3.95
2022-12-20T04:16:29.055Z,4.28
2022-12-20T04:18:55.557Z,4.38
2022-12-20T04:21:26.100Z,4.25
2022-12-20T04:23:52.385Z,4.05
2022-12-20T04:26:18.608Z,3.97
2022-12-20T04:28:44.823Z,4.10
2022-12-20T04:31:11.312Z,4.03
2022-12-20T04:33:37.560Z,4.50
2022-12-20T04:36:04.108Z,4.10
2022-12-20T04:38:30.498Z,4.38
2022-12-20T04:40:56.905Z,4.47
2022-12-20T04:43:23.963Z,4.18
2022-12-20T04:45:51.212Z,7.25
2022-12-20T04:48:46.565Z,5.72
2022-12-20T04:51:03.695Z,19.17
2022-12-20T04:53:48.416Z,7.82
2022-12-20T04:56:15.889Z,7.13
2022-12-20T04:58:42.407Z,6.15
2022-12-20T05:01:09.605Z,5.90
2022-12-20T05:03:35.953Z,5.18
2022-12-20T05:06:02.163Z,4.80
2022-12-20T05:08:28.365Z,4.93
2022-12-20T05:10:54.627Z,4.65
2022-12-20T05:13:20.870Z,4.10
2022-12-20T05:15:50.370Z,4.50
2022-12-20T05:18:16.556Z,4.32
2022-12-20T05:20:42.773Z,4.30
2022-12-20T05:23:28.381Z,4.20
2022-12-20T05:26:13.547Z,4.03
2022-12-20T05:28:39.882Z,3.97
2022-12-20T05:31:06.240Z,4.15
2022-12-20T05:33:34.319Z,4.28
2022-12-20T05:36:00.753Z,4.20
2022-12-20T05:38:27.279Z,3.75
2022-12-20T05:40:53.515Z,4.15
2022-12-20T05:43:20.182Z,4.20
2022-12-20T05:45:47.283Z,4.20
2022-12-20T05:48:13.661Z,4.20
2022-12-20T05:50:39.968Z,4.30
2022-12-20T05:53:11.643Z,4.05
2022-12-20T05:55:40.394Z,4.22
2022-12-20T05:58:07.460Z,4.47
2022-12-20T06:00:34.067Z,3.88
2022-12-20T06:03:00.506Z,4.20
2022-12-20T06:05:26.908Z,4.03
2022-12-20T06:07:53.088Z,4.60
2022-12-20T06:10:19.307Z,3.90
2022-12-20T06:12:45.523Z,4.15
2022-12-20T06:15:11.835Z,4.40
2022-12-20T06:17:38.034Z,4.10
2022-12-20T06:20:04.496Z,4.25
2022-12-20T06:22:31.788Z,4.28
2022-12-20T06:24:58.012Z,4.28
2022-12-20T06:27:24.297Z,4.82
2022-12-20T06:29:54.282Z,4.55
2022-12-20T06:32:20.655Z,4.43
2022-12-20T06:34:46.880Z,4.78
2022-12-20T06:37:13.199Z,4.80
2022-12-20T06:39:39.425Z,4.55
2022-12-20T06:42:05.645Z,4.95
2022-12-20T06:44:31.966Z,4.43
2022-12-20T06:46:58.283Z,4.93
2022-12-20T06:49:24.521Z,4.55
2022-12-20T06:51:50.894Z,5.22
2022-12-20T06:54:17.068Z,4.75
2022-12-20T06:56:43.256Z,4.95
2022-12-20T06:59:09.478Z,5.80
2022-12-20T07:01:36.018Z,5.18
2022-12-20T07:04:02.441Z,5.10
2022-12-20T07:06:29.288Z,5.30
2022-12-20T07:08:55.676Z,5.20
2022-12-20T07:11:21.976Z,5.18
2022-12-20T07:13:50.042Z,4.90
2022-12-20T07:16:16.313Z,5.35
2022-12-20T07:18:44.642Z,4.80
2022-12-20T07:21:10.858Z,5.05
2022-12-20T07:23:37.105Z,5.05
2022-12-20T07:26:03.957Z,4.72
2022-12-20T07:28:30.330Z,4.90
2022-12-20T07:31:00.556Z,5.28
2022-12-20T07:33:26.760Z,5.63
2022-12-20T07:35:59.468Z,4.65
2022-12-20T07:38:26.243Z,4.82
2022-12-20T07:40:52.487Z,4.70
2022-12-20T07:43:18.686Z,5.05
2022-12-20T07:45:44.899Z,5.82
2022-12-20T07:48:17.936Z,5.78
2022-12-20T07:50:46.379Z,5.63
2022-12-20T07:53:12.708Z,5.22
2022-12-20T07:55:40.576Z,5.45
2022-12-20T07:58:07.919Z,5.70
2022-12-20T08:00:34.386Z,6.07
2022-12-20T08:03:02.530Z,6.32
2022-12-20T08:05:28.985Z,7.60
2022-12-20T08:07:59.392Z,5.88
2022-12-20T08:10:26.174Z,6.18
2022-12-20T08:12:52.526Z,17.45
2022-12-20T08:15:19.419Z,15.70
2022-12-20T08:17:45.656Z,12.65
2022-12-20T08:20:12.021Z,15.20
2022-12-20T08:22:38.233Z,8.90
2022-12-20T08:25:04.718Z,10.55
2022-12-20T08:27:30.900Z,6.82
2022-12-20T08:29:57.160Z,6.28
2022-12-20T08:32:23.360Z,5.90
2022-12-20T08:34:49.577Z,6.32
2022-12-20T08:37:19.171Z,4.93
2022-12-20T08:39:45.371Z,5.25
2022-12-20T08:42:11.650Z,5.45
2022-12-20T08:44:37.892Z,6.22
2022-12-20T08:47:04.255Z,5.90
2022-12-20T08:49:30.474Z,6.18
2022-12-20T08:51:56.745Z,4.85
2022-12-20T08:54:22.971Z,4.82
2022-12-20T08:56:49.178Z,4.30
2022-12-20T08:59:15.416Z,5.18
2022-12-20T09:01:41.753Z,4.85
2022-12-20T09:04:09.681Z,4.55
2022-12-20T09:06:36.703Z,4.72
2022-12-20T09:09:03.243Z,4.70
2022-12-20T09:11:29.567Z,4.60
2022-12-20T09:13:56.581Z,5.07
2022-12-20T09:16:25.622Z,4.95
2022-12-20T09:18:52.790Z,5.05
2022-12-20T09:21:19.582Z,4.90
2022-12-20T09:23:45.778Z,4.82
2022-12-20T09:26:13.064Z,4.65
2022-12-20T09:28:39.407Z,4.43
2022-12-20T09:31:06.544Z,4.30
2022-12-20T09:33:33.225Z,3.97
2022-12-20T09:35:59.943Z,3.97
2022-12-20T09:38:26.332Z,4.55
2022-12-20T09:40:55.238Z,3.83
2022-12-20T09:43:22.323Z,4.25
2022-12-20T09:45:50.453Z,4.45
2022-12-20T09:48:18.712Z,4.07
2022-12-20T09:51:03.320Z,4.10
2022-12-20T09:53:48.470Z,4.88
2022-12-20T09:56:28.247Z,4.20
2022-12-20T09:58:59.126Z,4.65
2022-12-20T10:01:31.195Z,3.95
2022-12-20T10:04:03.623Z,4.28
2022-12-20T10:06:48.493Z,4.38
2022-12-20T10:09:33.563Z,4.00
2022-12-20T10:12:20.054Z,4.43
2022-12-20T10:14:49.042Z,5.28
2022-12-20T10:17:37.900Z,4.03
2022-12-20T10:20:22.830Z,5.25
2022-12-20T10:22:52.053Z,4.20
2022-12-20T10:25:18.347Z,3.28
2022-12-20T10:27:45.937Z,3.03
2022-12-20T10:30:22.601Z,3.42
2022-12-20T10:32:50.066Z,3.17
2022-12-20T10:35:25.469Z,3.28
2022-12-20T10:38:10.117Z,2.83
2022-12-20T10:41:19.277Z,2.90
2022-12-20T10:43:56.275Z,2.40
2022-12-20T10:46:23.054Z,2.83
2022-12-20T10:48:50.631Z,2.60
2022-12-20T10:51:18.395Z,2.83
2022-12-20T10:53:58.435Z,2.95
2022-12-20T10:56:31.009Z,3.30
2022-12-20T10:59:02.342Z,3.50
2022-12-20T11:01:31.200Z,3.67
2022-12-20T11:03:59.436Z,4.03
2022-12-20T11:06:27.718Z,6.38
2022-12-20T11:09:12.066Z,4.28
2022-12-20T11:11:38.270Z,4.80
2022-12-20T11:14:14.167Z,3.95
2022-12-20T11:16:40.548Z,4.30
2022-12-20T11:19:13.714Z,3.92
2022-12-20T11:21:44.862Z,4.63
2022-12-20T11:24:40.399Z,4.35
2022-12-20T11:27:16.092Z,4.13
2022-12-20T11:29:50.607Z,4.80
2022-12-20T11:32:21.554Z,4.07
2022-12-20T11:34:47.810Z,3.95
2022-12-20T11:37:19.075Z,4.05
2022-12-20T11:40:14.442Z,3.78
2022-12-20T11:42:54.719Z,4.68
2022-12-20T11:45:30.050Z,3.95
2022-12-20T11:48:15.615Z,4.55
2022-12-20T11:50:44.919Z,3.55
2022-12-20T11:53:19.805Z,3.55
2022-12-20T11:55:48.253Z,3.85
2022-12-20T11:58:21.168Z,4.05
2022-12-20T12:00:57.559Z,3.83
2022-12-20T12:03:26.929Z,3.67
2022-12-20T12:05:55.601Z,3.47
2022-12-20T12:08:24.706Z,3.58
2022-12-20T12:10:56.155Z,4.07
2022-12-20T12:13:27.394Z,4.13
2022-12-20T12:16:13.990Z,3.90
2022-12-20T12:18:42.060Z,3.33
2022-12-20T12:21:24.765Z,2.65
2022-12-20T12:24:09.538Z,2.90
2022-12-20T12:26:37.184Z,3.05
2022-12-20T12:29:05.007Z,2.40
2022-12-20T12:31:31.253Z,2.95
2022-12-20T12:34:03.318Z,2.83
2022-12-20T12:36:38.513Z,2.45
2022-12-20T12:39:14.504Z,2.47
2022-12-20T12:41:49.832Z,2.65
2022-12-20T12:44:19.010Z,2.55
2022-12-20T12:46:46.281Z,2.80
2022-12-20T12:49:17.580Z,2.33
2022-12-20T12:51:49.256Z,3.38
2022-12-20T12:54:21.917Z,3.53
2022-12-20T12:56:49.129Z,3.40
2022-12-20T12:59:33.698Z,3.25
2022-12-20T13:02:06.621Z,3.15
2022-12-20T13:04:52.085Z,3.45
2022-12-20T13:07:25.830Z,3.55
2022-12-20T13:09:52.062Z,3.28
2022-12-20T13:12:36.674Z,3.33
2022-12-20T13:15:21.272Z,3.90
2022-12-20T13:17:57.314Z,4.05
2022-12-20T13:20:25.760Z,3.95
2022-12-20T13:23:13.076Z,3.75
2022-12-20T13:25:40.792Z,4.60
2022-12-20T13:28:16.483Z,5.28
2022-12-20T13:30:43.208Z,4.10
2022-12-20T13:33:20.376Z,4.05
2022-12-20T13:35:53.897Z,3.92
2022-12-20T13:38:39.072Z,4.10
2022-12-20T13:41:26.921Z,4.38
2022-12-20T13:43:59.762Z,4.22
2022-12-20T13:46:40.106Z,4.00
2022-12-20T13:49:10.528Z,4.68
2022-12-20T13:51:36.856Z,4.22
2022-12-20T13:54:04.789Z,4.50
2022-12-20T13:56:33.268Z,4.50
2022-12-20T13:59:03.971Z,4.10
2022-12-20T14:01:31.259Z,3.80
2022-12-20T14:03:58.141Z,4.40
2022-12-20T14:06:27.200Z,4.28
2022-12-20T14:08:53.939Z,4.38
2022-12-20T14:11:24.234Z,4.00
2022-12-20T14:17:26.448Z,4.22
2022-12-20T14:20:22.218Z,4.55
2022-12-20T14:23:10.880Z,4.00
2022-12-20T14:49:57.439Z,4.40
2022-12-20T14:55:45.800Z,4.28
2022-12-20T14:58:25.815Z,4.53
2022-12-20T15:00:55.867Z,3.90
2022-12-20T15:03:23.086Z,4.13
2022-12-20T15:05:50.927Z,3.90
2022-12-20T15:08:21.233Z,4.10
2022-12-20T15:10:52.897Z,4.18
2022-12-20T15:13:21.092Z,4.20
2022-12-20T15:15:47.522Z,4.10
2022-12-20T15:18:18.127Z,4.03
2022-12-20T15:20:45.673Z,3.83
2022-12-20T15:23:19.067Z,4.35
2022-12-20T15:25:45.931Z,3.50
2022-12-20T15:28:17.182Z,3.80
2022-12-20T15:30:43.907Z,3.55
2022-12-20T15:33:14.881Z,3.88
2022-12-20T15:35:41.481Z,3.90
2022-12-20T15:38:11.969Z,3.60
2022-12-20T15:40:39.191Z,3.42
2022-12-20T15:43:05.396Z,3.83
2022-12-20T15:45:32.261Z,4.07
2022-12-20T15:47:58.531Z,3.70
2022-12-20T15:50:24.724Z,3.20
2022-12-20T15:52:50.965Z,3.72
2022-12-20T15:55:17.225Z,3.80
2022-12-20T15:57:43.420Z,3.97
2022-12-20T16:00:09.856Z,4.00
2022-12-20T16:02:36.329Z,3.75
2022-12-20T16:05:02.943Z,3.15
2022-12-20T16:07:29.203Z,3.53
2022-12-20T16:09:55.639Z,3.58
2022-12-20T16:12:26.469Z,3.70
2022-12-20T16:14:52.700Z,3.90
2022-12-20T16:17:18.986Z,4.15
2022-12-20T16:19:45.991Z,4.15
2022-12-20T16:22:16.722Z,4.32
2022-12-20T16:24:43.438Z,4.30
2022-12-20T16:27:09.696Z,3.63
2022-12-20T16:29:35.959Z,4.10
2022-12-20T16:32:02.226Z,4.10
2022-12-20T16:34:28.509Z,4.13
2022-12-20T16:36:54.701Z,4.95
2022-12-20T16:39:22.180Z,4.78
2022-12-20T16:41:48.387Z,4.70
2022-12-20T16:44:15.571Z,4.22
2022-12-20T16:46:41.862Z,4.28
2022-12-20T16:49:13.452Z,4.30
2022-12-20T16:51:45.250Z,4.95
2022-12-20T16:54:19.697Z,5.43
2022-12-20T16:56:47.438Z,5.07
2022-12-20T16:59:20.067Z,4.53
2022-12-20T17:01:47.621Z,4.68
2022-12-20T17:04:14.736Z,5.07
2022-12-20T17:06:41.842Z,4.55
2022-12-20T17:09:08.298Z,4.50
2022-12-20T17:11:34.580Z,4.63
2022-12-20T17:14:00.986Z,4.25
2022-12-20T17:16:27.515Z,4.38
2022-12-20T17:18:54.565Z,4.50
2022-12-20T17:24:24.749Z,4.70
2022-12-20T17:26:50.965Z,4.47
2022-12-20T17:29:17.786Z,4.28
2022-12-20T17:31:44.665Z,4.55
2022-12-20T17:34:17.806Z,5.30
2022-12-20T17:36:44.343Z,4.55
2022-12-20T17:39:10.550Z,4.70
2022-12-20T17:41:36.835Z,4.43
2022-12-20T17:44:03.791Z,4.30
2022-12-20T17:46:30.262Z,4.50
2022-12-20T17:48:57.339Z,4.65
2022-12-20T17:51:25.569Z,5.18
2022-12-20T17:53:53.337Z,5.00
2022-12-20T17:56:20.565Z,5.10
2022-12-20T17:58:47.036Z,5.53
2022-12-20T18:01:16.255Z,4.90
2022-12-20T18:04:07.317Z,5.53
2022-12-20T18:06:31.103Z,5.50
2022-12-20T18:08:57.918Z,7.55
2022-12-20T18:11:25.318Z,5.63
2022-12-20T18:13:52.739Z,5.57
2022-12-20T18:16:20.314Z,6.22
2022-12-20T18:18:47.004Z,5.60
2022-12-20T18:21:14.566Z,5.00
2022-12-20T18:23:41.337Z,5.57
2022-12-20T18:26:20.959Z,7.25
2022-12-20T18:28:48.410Z,6.88
2022-12-20T18:31:16.393Z,5.43
2022-12-20T18:33:42.641Z,6.03
2022-12-20T18:36:10.010Z,5.60
2022-12-20T18:38:36.837Z,5.38
2022-12-20T18:41:04.208Z,5.68
2022-12-20T18:43:31.445Z,6.03
2022-12-20T18:46:04.637Z,7.00
2022-12-20T18:48:31.126Z,6.15
2022-12-20T18:51:02.261Z,5.68
2022-12-20T18:53:30.001Z,6.00
2022-12-20T18:55:56.323Z,5.60
2022-12-20T18:58:22.524Z,6.55
2022-12-20T19:00:51.849Z,5.38
2022-12-20T19:03:18.948Z,5.45
2022-12-20T19:05:45.219Z,5.47
2022-12-20T19:08:11.430Z,5.75
2022-12-20T19:10:37.625Z,6.22
2022-12-20T19:13:05.982Z,6.10
2022-12-20T19:15:32.505Z,6.10
2022-12-20T19:17:58.788Z,5.80
2022-12-20T19:20:25.040Z,6.25
2022-12-20T19:22:52.833Z,6.93
2022-12-20T19:25:19.196Z,6.75
2022-12-20T19:27:45.633Z,6.65
2022-12-20T19:30:11.932Z,6.78
2022-12-20T19:32:38.192Z,7.10
2022-12-20T19:35:29.923Z,6.30
2022-12-20T19:37:51.042Z,6.75
2022-12-20T19:40:17.272Z,6.85
2022-12-20T19:42:43.675Z,6.65
2022-12-20T19:45:10.288Z,7.35
2022-12-20T19:47:36.589Z,6.97
2022-12-20T19:50:03.199Z,7.18
2022-12-20T19:52:29.601Z,8.48
2022-12-20T19:54:55.841Z,7.72
2022-12-20T19:57:22.052Z,8.45
2022-12-20T19:59:52.247Z,10.95
2022-12-20T20:02:22.250Z,9.80
2022-12-20T20:04:48.939Z,8.02
2022-12-20T20:07:15.442Z,8.15
2022-12-20T20:09:41.763Z,8.05
2022-12-20T20:12:08.055Z,7.28
2022-12-20T20:14:34.333Z,7.40
2022-12-20T20:17:00.558Z,6.80
2022-12-20T20:19:26.802Z,7.35
2022-12-20T20:21:53.031Z,6.82
2022-12-20T20:24:19.265Z,7.00
2022-12-20T20:26:45.599Z,6.90
2022-12-20T20:29:11.820Z,6.88
2022-12-20T20:31:38.245Z,6.38
2022-12-20T20:34:04.576Z,6.60
2022-12-20T20:36:30.809Z,7.18
2022-12-20T20:38:57.204Z,7.05
2022-12-20T20:41:23.595Z,7.35
2022-12-20T20:43:49.806Z,7.43
2022-12-20T20:46:16.625Z,7.85
2022-12-20T20:48:43.668Z,7.65
2022-12-20T20:51:10.126Z,7.97
2022-12-20T20:53:36.375Z,7.70
2022-12-20T20:56:03.310Z,8.25
2022-12-20T20:58:29.670Z,8.68
2022-12-20T21:01:00.570Z,8.07
2022-12-20T21:03:27.764Z,8.48
2022-12-20T21:08:40.541Z,8.63
2022-12-20T21:11:07.620Z,8.52
2022-12-20T21:13:34.154Z,8.38
2022-12-20T21:16:11.139Z,9.05
2022-12-20T21:18:37.525Z,8.30
2022-12-20T21:21:11.327Z,7.57
2022-12-20T21:23:38.167Z,8.35
2022-12-20T21:26:04.499Z,8.35
2022-12-20T21:28:31.435Z,8.65
2022-12-20T21:30:59.003Z,8.50
2022-12-20T21:33:25.329Z,8.93
2022-12-20T21:36:01.589Z,9.18
2022-12-20T21:38:27.925Z,9.57
2022-12-20T21:41:04.189Z,7.88
2022-12-20T21:43:30.643Z,8.45
2022-12-20T21:45:57.243Z,8.63
2022-12-20T21:48:23.983Z,8.20
2022-12-20T21:51:00.273Z,8.32
2022-12-20T21:53:26.843Z,9.27
2022-12-20T21:55:53.606Z,8.18
2022-12-20T21:58:20.312Z,8.73
2022-12-20T22:00:52.523Z,8.95
2022-12-20T22:03:21.378Z,8.50
2022-12-20T22:05:48.048Z,8.32
2022-12-20T22:08:15.427Z,8.98
2022-12-20T22:10:42.068Z,8.40
2022-12-20T22:13:08.552Z,8.20
2022-12-20T22:15:34.780Z,9.98
2022-12-20T22:18:01.077Z,9.75
2022-12-20T22:20:27.365Z,8.98
2022-12-20T22:22:54.129Z,9.30
2022-12-20T22:25:20.407Z,9.80
2022-12-20T22:27:46.634Z,9.52
2022-12-20T22:30:12.879Z,10.10
2022-12-20T22:32:39.073Z,9.32
2022-12-20T22:35:05.499Z,9.90
2022-12-20T22:37:31.807Z,8.88
2022-12-20T22:39:58.034Z,9.50
2022-12-20T22:42:24.399Z,8.80
2022-12-20T22:44:50.768Z,9.95
2022-12-20T22:47:17.047Z,9.80
2022-12-20T22:49:43.252Z,9.48
2022-12-20T22:52:09.532Z,9.40
2022-12-20T22:54:35.760Z,9.82
2022-12-20T22:57:02.009Z,11.05
2022-12-20T22:59:28.193Z,11.57
2022-12-20T23:01:54.491Z,11.02
2022-12-20T23:04:21.034Z,12.93
2022-12-20T23:06:47.344Z,14.25
2022-12-20T23:09:13.528Z,11.48
2022-12-20T23:11:58.701Z,10.85
2022-12-20T23:14:43.379Z,10.65
2022-12-20T23:17:09.873Z,10.57
2022-12-20T23:19:54.739Z,9.20
2022-12-20T23:22:40.224Z,8.82
2022-12-20T23:25:11.705Z,8.98
2022-12-20T23:30:05.412Z,8.43
2022-12-20T23:32:31.630Z,7.80
2022-12-20T23:34:57.867Z,9.00
2022-12-20T23:37:24.081Z,9.05
2022-12-20T23:39:50.287Z,9.40
2022-12-20T23:42:16.576Z,8.70
2022-12-20T23:44:42.769Z,9.23
2022-12-20T23:47:13.003Z,8.05
2022-12-20T23:49:41.864Z,8.82
2022-12-20T23:52:08.117Z,9.07
2022-12-20T23:54:34.306Z,8.55
2022-12-20T23:57:00.513Z,8.63
2022-12-20T23:59:26.774Z,8.25
